Dagomys, Russia
Current Conditions -  °F | °C
As of 4:30 AM on Tuesday 25 Nov 2014 (Local Time) from URSS Reporting Station
Few Clouds Few Clouds  
Wind Chill: 34°   Ceiling: Unl
Heat Index: 41°   Visibility: 6mi
Dew Point: 36°   Wind: 11mph
Humidity: 81%   Direction: 70°ENE
Pressure: 30.15"   Gusts: NA
Location:  43.67°N, 39.63°E
Report Text: URSS 250130Z 07005MPS 9999 FEW050 05/02 Q1021 NOSIG RMKR02/04004MPS QFE764 06000070 02000070
Loading
Personal Weather Stations






























Interactive Weather Map New forecast layout! Learn more

10-Day Weather Forecast

Advertisements
Track Severe Weather on mobile